sensor_id;sensor_type;location;lat;lon;timestamp;P1;durP1;ratioP1;P2;durP2;ratioP2
77078;SDS011;66004;55.096;38.760;2023-03-05T00:01:07;2.80;;;1.20;;
77078;SDS011;66004;55.096;38.760;2023-03-05T00:03:34;2.60;;;1.30;;
77078;SDS011;66004;55.096;38.760;2023-03-05T00:06:06;3.92;;;1.10;;
77078;SDS011;66004;55.096;38.760;2023-03-05T00:08:32;2.15;;;1.20;;
77078;SDS011;66004;55.096;38.760;2023-03-05T00:10:59;2.33;;;1.30;;
77078;SDS011;66004;55.096;38.760;2023-03-05T00:13:27;3.60;;;1.10;;
77078;SDS011;66004;55.096;38.760;2023-03-05T00:15:52;2.95;;;1.15;;
77078;SDS011;66004;55.096;38.760;2023-03-05T00:18:18;2.35;;;1.10;;
77078;SDS011;66004;55.096;38.760;2023-03-05T00:20:46;2.42;;;1.08;;
77078;SDS011;66004;55.096;38.760;2023-03-05T00:23:15;6.97;;;1.92;;
77078;SDS011;66004;55.096;38.760;2023-03-05T00:25:44;4.85;;;1.30;;
77078;SDS011;66004;55.096;38.760;2023-03-05T00:28:10;2.25;;;1.17;;
77078;SDS011;66004;55.096;38.760;2023-03-05T00:30:36;2.72;;;1.17;;
77078;SDS011;66004;55.096;38.760;2023-03-05T00:33:02;1.38;;;0.95;;
77078;SDS011;66004;55.096;38.760;2023-03-05T00:35:27;1.50;;;0.90;;
77078;SDS011;66004;55.096;38.760;2023-03-05T00:40:19;1.30;;;0.90;;
77078;SDS011;66004;55.096;38.760;2023-03-05T00:42:45;1.50;;;0.80;;
77078;SDS011;66004;55.096;38.760;2023-03-05T00:45:10;2.63;;;1.00;;
77078;SDS011;66004;55.096;38.760;2023-03-05T00:47:36;3.20;;;1.20;;
77078;SDS011;66004;55.096;38.760;2023-03-05T00:50:02;4.25;;;1.35;;
77078;SDS011;66004;55.096;38.760;2023-03-05T00:52:29;1.75;;;1.33;;
77078;SDS011;66004;55.096;38.760;2023-03-05T00:54:54;1.90;;;1.13;;
77078;SDS011;66004;55.096;38.760;2023-03-05T00:57:20;1.50;;;0.90;;
77078;SDS011;66004;55.096;38.760;2023-03-05T00:59:45;2.65;;;1.00;;
77078;SDS011;66004;55.096;38.760;2023-03-05T01:02:11;2.30;;;1.00;;
77078;SDS011;66004;55.096;38.760;2023-03-05T01:04:36;1.83;;;0.82;;
77078;SDS011;66004;55.096;38.760;2023-03-05T01:07:02;1.77;;;0.82;;
77078;SDS011;66004;55.096;38.760;2023-03-05T01:09:28;1.63;;;0.88;;
77078;SDS011;66004;55.096;38.760;2023-03-05T01:11:54;1.13;;;0.80;;
77078;SDS011;66004;55.096;38.760;2023-03-05T01:14:20;3.50;;;0.63;;
77078;SDS011;66004;55.096;38.760;2023-03-05T01:16:46;1.77;;;0.68;;
77078;SDS011;66004;55.096;38.760;2023-03-05T01:19:12;1.45;;;0.70;;
77078;SDS011;66004;55.096;38.760;2023-03-05T01:21:38;1.55;;;0.70;;
77078;SDS011;66004;55.096;38.760;2023-03-05T01:24:04;0.90;;;0.50;;
77078;SDS011;66004;55.096;38.760;2023-03-05T01:26:30;2.72;;;1.05;;
77078;SDS011;66004;55.096;38.760;2023-03-05T01:28:55;2.53;;;0.50;;
77078;SDS011;66004;55.096;38.760;2023-03-05T01:31:21;2.70;;;0.82;;
77078;SDS011;66004;55.096;38.760;2023-03-05T01:33:47;1.48;;;0.52;;
77078;SDS011;66004;55.096;38.760;2023-03-05T01:36:13;0.90;;;0.50;;
77078;SDS011;66004;55.096;38.760;2023-03-05T01:38:44;2.88;;;1.00;;
77078;SDS011;66004;55.096;38.760;2023-03-05T01:41:11;1.60;;;0.80;;
77078;SDS011;66004;55.096;38.760;2023-03-05T01:43:38;0.80;;;0.40;;
77078;SDS011;66004;55.096;38.760;2023-03-05T01:54:20;1.00;;;0.52;;
77078;SDS011;66004;55.096;38.760;2023-03-05T01:56:49;1.55;;;0.70;;
77078;SDS011;66004;55.096;38.760;2023-03-05T01:59:16;2.78;;;0.65;;
77078;SDS011;66004;55.096;38.760;2023-03-05T02:01:43;0.85;;;0.50;;
77078;SDS011;66004;55.096;38.760;2023-03-05T02:04:13;0.75;;;0.40;;
77078;SDS011;66004;55.096;38.760;2023-03-05T02:06:41;1.42;;;0.40;;
77078;SDS011;66004;55.096;38.760;2023-03-05T02:09:07;1.13;;;0.50;;
77078;SDS011;66004;55.096;38.760;2023-03-05T02:11:33;1.02;;;0.50;;
77078;SDS011;66004;55.096;38.760;2023-03-05T02:14:00;0.50;;;0.40;;
77078;SDS011;66004;55.096;38.760;2023-03-05T02:16:27;0.50;;;0.30;;
77078;SDS011;66004;55.096;38.760;2023-03-05T02:19:00;1.08;;;0.55;;
77078;SDS011;66004;55.096;38.760;2023-03-05T02:21:27;1.17;;;0.30;;
77078;SDS011;66004;55.096;38.760;2023-03-05T02:24:00;1.05;;;0.60;;
77078;SDS011;66004;55.096;38.760;2023-03-05T02:26:26;2.75;;;0.70;;
77078;SDS011;66004;55.096;38.760;2023-03-05T02:28:52;1.02;;;0.40;;
77078;SDS011;66004;55.096;38.760;2023-03-05T02:31:22;0.88;;;0.50;;
77078;SDS011;66004;55.096;38.760;2023-03-05T02:33:49;1.58;;;0.70;;
77078;SDS011;66004;55.096;38.760;2023-03-05T02:36:17;0.70;;;0.38;;
77078;SDS011;66004;55.096;38.760;2023-03-05T02:38:43;0.90;;;0.70;;
77078;SDS011;66004;55.096;38.760;2023-03-05T02:41:09;1.30;;;0.43;;
77078;SDS011;66004;55.096;38.760;2023-03-05T02:43:35;1.73;;;0.70;;
77078;SDS011;66004;55.096;38.760;2023-03-05T02:46:01;0.88;;;0.57;;
77078;SDS011;66004;55.096;38.760;2023-03-05T02:48:27;0.82;;;0.60;;
77078;SDS011;66004;55.096;38.760;2023-03-05T02:53:00;1.73;;;0.63;;
77078;SDS011;66004;55.096;38.760;2023-03-05T02:55:26;0.98;;;0.60;;
77078;SDS011;66004;55.096;38.760;2023-03-05T02:57:51;1.00;;;0.55;;
77078;SDS011;66004;55.096;38.760;2023-03-05T03:00:17;0.90;;;0.43;;
77078;SDS011;66004;55.096;38.760;2023-03-05T03:02:42;0.35;;;0.28;;
77078;SDS011;66004;55.096;38.760;2023-03-05T03:05:08;1.95;;;0.60;;
77078;SDS011;66004;55.096;38.760;2023-03-05T03:07:34;1.63;;;0.52;;
77078;SDS011;66004;55.096;38.760;2023-03-05T03:12:26;1.08;;;0.40;;
77078;SDS011;66004;55.096;38.760;2023-03-05T03:14:51;2.42;;;0.50;;
77078;SDS011;66004;55.096;38.760;2023-03-05T03:17:17;1.85;;;0.57;;
77078;SDS011;66004;55.096;38.760;2023-03-05T03:19:43;1.38;;;0.70;;
77078;SDS011;66004;55.096;38.760;2023-03-05T03:22:10;1.80;;;0.77;;
77078;SDS011;66004;55.096;38.760;2023-03-05T03:24:37;1.25;;;0.80;;
77078;SDS011;66004;55.096;38.760;2023-03-05T03:27:04;0.98;;;0.57;;
77078;SDS011;66004;55.096;38.760;2023-03-05T03:29:30;0.80;;;0.52;;
77078;SDS011;66004;55.096;38.760;2023-03-05T03:31:56;2.28;;;0.70;;
77078;SDS011;66004;55.096;38.760;2023-03-05T03:34:21;1.20;;;0.65;;
77078;SDS011;66004;55.096;38.760;2023-03-05T03:36:48;0.70;;;0.50;;
77078;SDS011;66004;55.096;38.760;2023-03-05T03:39:15;1.27;;;0.68;;
77078;SDS011;66004;55.096;38.760;2023-03-05T03:44:08;1.25;;;0.30;;
77078;SDS011;66004;55.096;38.760;2023-03-05T03:46:35;1.55;;;0.50;;
77078;SDS011;66004;55.096;38.760;2023-03-05T03:49:05;1.30;;;0.68;;
77078;SDS011;66004;55.096;38.760;2023-03-05T03:51:32;0.75;;;0.52;;
77078;SDS011;66004;55.096;38.760;2023-03-05T03:53:58;0.65;;;0.30;;
77078;SDS011;66004;55.096;38.760;2023-03-05T03:56:24;2.75;;;0.60;;
77078;SDS011;66004;55.096;38.760;2023-03-05T03:58:51;2.22;;;0.50;;
77078;SDS011;66004;55.096;38.760;2023-03-05T04:03:43;0.90;;;0.55;;
77078;SDS011;66004;55.096;38.760;2023-03-05T04:06:08;2.67;;;0.77;;
77078;SDS011;66004;55.096;38.760;2023-03-05T04:08:34;0.98;;;0.30;;
77078;SDS011;66004;55.096;38.760;2023-03-05T04:11:00;1.08;;;0.40;;
77078;SDS011;66004;55.096;38.760;2023-03-05T04:13:26;1.55;;;0.80;;
77078;SDS011;66004;55.096;38.760;2023-03-05T04:15:52;1.58;;;0.40;;
77078;SDS011;66004;55.096;38.760;2023-03-05T04:18:18;2.70;;;0.70;;
77078;SDS011;66004;55.096;38.760;2023-03-05T04:20:44;1.10;;;0.50;;
77078;SDS011;66004;55.096;38.760;2023-03-05T04:23:09;0.70;;;0.57;;
77078;SDS011;66004;55.096;38.760;2023-03-05T04:25:35;1.75;;;0.80;;
77078;SDS011;66004;55.096;38.760;2023-03-05T04:28:00;0.68;;;0.35;;
77078;SDS011;66004;55.096;38.760;2023-03-05T04:30:26;0.95;;;0.30;;
77078;SDS011;66004;55.096;38.760;2023-03-05T04:32:51;0.95;;;0.52;;
77078;SDS011;66004;55.096;38.760;2023-03-05T04:35:17;0.85;;;0.60;;
77078;SDS011;66004;55.096;38.760;2023-03-05T04:37:43;1.73;;;0.75;;
77078;SDS011;66004;55.096;38.760;2023-03-05T04:40:08;0.82;;;0.40;;
77078;SDS011;66004;55.096;38.760;2023-03-05T04:42:35;1.17;;;0.30;;
77078;SDS011;66004;55.096;38.760;2023-03-05T04:45:00;1.23;;;0.40;;
77078;SDS011;66004;55.096;38.760;2023-03-05T04:47:26;1.00;;;0.40;;
77078;SDS011;66004;55.096;38.760;2023-03-05T04:49:52;1.02;;;0.50;;
77078;SDS011;66004;55.096;38.760;2023-03-05T04:52:18;0.70;;;0.55;;
77078;SDS011;66004;55.096;38.760;2023-03-05T04:54:43;3.13;;;0.73;;
77078;SDS011;66004;55.096;38.760;2023-03-05T04:57:09;1.83;;;0.32;;
77078;SDS011;66004;55.096;38.760;2023-03-05T04:59:35;2.58;;;0.95;;
77078;SDS011;66004;55.096;38.760;2023-03-05T05:02:01;0.90;;;0.47;;
77078;SDS011;66004;55.096;38.760;2023-03-05T05:04:27;0.98;;;0.40;;
77078;SDS011;66004;55.096;38.760;2023-03-05T05:06:54;2.40;;;0.30;;
77078;SDS011;66004;55.096;38.760;2023-03-05T05:09:20;2.35;;;0.60;;
77078;SDS011;66004;55.096;38.760;2023-03-05T05:11:46;0.60;;;0.40;;
77078;SDS011;66004;55.096;38.760;2023-03-05T05:14:11;0.45;;;0.30;;
77078;SDS011;66004;55.096;38.760;2023-03-05T05:16:37;3.33;;;0.75;;
77078;SDS011;66004;55.096;38.760;2023-03-05T05:19:02;0.68;;;0.43;;
77078;SDS011;66004;55.096;38.760;2023-03-05T05:21:28;5.53;;;0.50;;
77078;SDS011;66004;55.096;38.760;2023-03-05T05:23:53;1.60;;;0.40;;
77078;SDS011;66004;55.096;38.760;2023-03-05T05:26:19;1.13;;;0.50;;
77078;SDS011;66004;55.096;38.760;2023-03-05T05:28:44;3.47;;;1.08;;
77078;SDS011;66004;55.096;38.760;2023-03-05T05:31:11;1.20;;;0.50;;
77078;SDS011;66004;55.096;38.760;2023-03-05T05:33:38;1.27;;;0.60;;
77078;SDS011;66004;55.096;38.760;2023-03-05T05:36:04;2.03;;;0.55;;
77078;SDS011;66004;55.096;38.760;2023-03-05T05:38:31;0.98;;;0.40;;
77078;SDS011;66004;55.096;38.760;2023-03-05T05:41:04;1.92;;;0.35;;
77078;SDS011;66004;55.096;38.760;2023-03-05T05:43:34;1.23;;;0.35;;
77078;SDS011;66004;55.096;38.760;2023-03-05T05:46:00;0.70;;;0.30;;
77078;SDS011;66004;55.096;38.760;2023-03-05T05:48:29;1.30;;;0.43;;
77078;SDS011;66004;55.096;38.760;2023-03-05T05:50:56;1.73;;;0.50;;
77078;SDS011;66004;55.096;38.760;2023-03-05T05:53:22;1.65;;;0.77;;
77078;SDS011;66004;55.096;38.760;2023-03-05T05:55:49;2.15;;;0.68;;
77078;SDS011;66004;55.096;38.760;2023-03-05T05:58:15;2.97;;;0.40;;
77078;SDS011;66004;55.096;38.760;2023-03-05T06:00:41;1.63;;;0.60;;
77078;SDS011;66004;55.096;38.760;2023-03-05T06:03:07;2.22;;;0.50;;
77078;SDS011;66004;55.096;38.760;2023-03-05T06:05:33;1.15;;;0.47;;
77078;SDS011;66004;55.096;38.760;2023-03-05T06:07:58;0.77;;;0.40;;
77078;SDS011;66004;55.096;38.760;2023-03-05T06:10:24;1.20;;;0.52;;
77078;SDS011;66004;55.096;38.760;2023-03-05T06:12:50;0.63;;;0.30;;
77078;SDS011;66004;55.096;38.760;2023-03-05T06:15:15;1.00;;;0.40;;
77078;SDS011;66004;55.096;38.760;2023-03-05T06:17:41;2.15;;;0.60;;
77078;SDS011;66004;55.096;38.760;2023-03-05T06:20:06;0.85;;;0.60;;
77078;SDS011;66004;55.096;38.760;2023-03-05T06:22:36;1.30;;;0.60;;
77078;SDS011;66004;55.096;38.760;2023-03-05T06:25:03;2.58;;;0.68;;
77078;SDS011;66004;55.096;38.760;2023-03-05T06:27:30;2.65;;;0.43;;
77078;SDS011;66004;55.096;38.760;2023-03-05T06:29:56;1.42;;;0.82;;
77078;SDS011;66004;55.096;38.760;2023-03-05T06:32:21;1.10;;;0.60;;
77078;SDS011;66004;55.096;38.760;2023-03-05T06:34:48;2.22;;;0.68;;
77078;SDS011;66004;55.096;38.760;2023-03-05T06:37:14;1.98;;;0.93;;
77078;SDS011;66004;55.096;38.760;2023-03-05T06:39:39;1.15;;;0.57;;
77078;SDS011;66004;55.096;38.760;2023-03-05T06:42:05;1.55;;;0.77;;
77078;SDS011;66004;55.096;38.760;2023-03-05T06:44:30;1.88;;;0.40;;
77078;SDS011;66004;55.096;38.760;2023-03-05T06:46:56;1.00;;;0.52;;
77078;SDS011;66004;55.096;38.760;2023-03-05T06:49:21;2.45;;;0.60;;
77078;SDS011;66004;55.096;38.760;2023-03-05T06:51:47;0.68;;;0.40;;
77078;SDS011;66004;55.096;38.760;2023-03-05T06:54:13;1.42;;;0.65;;
77078;SDS011;66004;55.096;38.760;2023-03-05T06:56:42;0.55;;;0.30;;
77078;SDS011;66004;55.096;38.760;2023-03-05T06:59:09;0.88;;;0.40;;
77078;SDS011;66004;55.096;38.760;2023-03-05T07:01:36;1.73;;;0.70;;
77078;SDS011;66004;55.096;38.760;2023-03-05T07:04:02;1.50;;;0.50;;
77078;SDS011;66004;55.096;38.760;2023-03-05T07:06:30;5.07;;;0.60;;
77078;SDS011;66004;55.096;38.760;2023-03-05T07:08:56;4.00;;;0.50;;
77078;SDS011;66004;55.096;38.760;2023-03-05T07:11:23;3.65;;;0.65;;
77078;SDS011;66004;55.096;38.760;2023-03-05T07:13:49;1.40;;;0.60;;
77078;SDS011;66004;55.096;38.760;2023-03-05T07:16:16;1.38;;;0.65;;
77078;SDS011;66004;55.096;38.760;2023-03-05T07:18:50;5.05;;;0.80;;
77078;SDS011;66004;55.096;38.760;2023-03-05T07:21:20;3.55;;;0.95;;
77078;SDS011;66004;55.096;38.760;2023-03-05T07:26:14;1.10;;;0.57;;
77078;SDS011;66004;55.096;38.760;2023-03-05T07:28:40;1.25;;;0.60;;
77078;SDS011;66004;55.096;38.760;2023-03-05T07:31:07;3.53;;;0.50;;
77078;SDS011;66004;55.096;38.760;2023-03-05T07:33:37;1.00;;;0.60;;
77078;SDS011;66004;55.096;38.760;2023-03-05T07:36:05;1.58;;;0.60;;
77078;SDS011;66004;55.096;38.760;2023-03-05T07:38:35;0.65;;;0.43;;
77078;SDS011;66004;55.096;38.760;2023-03-05T07:41:04;3.00;;;0.68;;
77078;SDS011;66004;55.096;38.760;2023-03-05T07:43:31;1.27;;;0.73;;
77078;SDS011;66004;55.096;38.760;2023-03-05T07:45:57;2.78;;;0.50;;
77078;SDS011;66004;55.096;38.760;2023-03-05T07:48:25;2.45;;;0.47;;
77078;SDS011;66004;55.096;38.760;2023-03-05T07:51:27;1.92;;;0.50;;
77078;SDS011;66004;55.096;38.760;2023-03-05T07:53:48;1.15;;;0.50;;
77078;SDS011;66004;55.096;38.760;2023-03-05T07:56:29;1.95;;;0.63;;
77078;SDS011;66004;55.096;38.760;2023-03-05T07:58:57;4.75;;;1.05;;
77078;SDS011;66004;55.096;38.760;2023-03-05T08:01:29;2.75;;;0.70;;
77078;SDS011;66004;55.096;38.760;2023-03-05T08:04:02;0.90;;;0.50;;
77078;SDS011;66004;55.096;38.760;2023-03-05T08:06:28;1.23;;;0.70;;
77078;SDS011;66004;55.096;38.760;2023-03-05T08:08:54;1.23;;;0.50;;
77078;SDS011;66004;55.096;38.760;2023-03-05T08:11:20;2.92;;;0.60;;
77078;SDS011;66004;55.096;38.760;2023-03-05T08:13:45;1.00;;;0.50;;
77078;SDS011;66004;55.096;38.760;2023-03-05T08:16:12;1.13;;;0.55;;
77078;SDS011;66004;55.096;38.760;2023-03-05T08:18:40;3.53;;;0.93;;
77078;SDS011;66004;55.096;38.760;2023-03-05T08:21:06;2.47;;;0.52;;
77078;SDS011;66004;55.096;38.760;2023-03-05T08:23:39;2.38;;;0.60;;
77078;SDS011;66004;55.096;38.760;2023-03-05T08:26:10;3.72;;;0.47;;
77078;SDS011;66004;55.096;38.760;2023-03-05T08:31:08;0.80;;;0.60;;
77078;SDS011;66004;55.096;38.760;2023-03-05T08:33:35;7.80;;;0.77;;
77078;SDS011;66004;55.096;38.760;2023-03-05T08:36:00;1.25;;;0.52;;
77078;SDS011;66004;55.096;38.760;2023-03-05T08:38:26;2.35;;;0.73;;
77078;SDS011;66004;55.096;38.760;2023-03-05T08:40:52;1.45;;;0.70;;
77078;SDS011;66004;55.096;38.760;2023-03-05T08:43:17;1.48;;;0.40;;
77078;SDS011;66004;55.096;38.760;2023-03-05T08:45:43;1.50;;;0.55;;
77078;SDS011;66004;55.096;38.760;2023-03-05T08:48:08;0.95;;;0.30;;
77078;SDS011;66004;55.096;38.760;2023-03-05T08:53:00;0.75;;;0.43;;
77078;SDS011;66004;55.096;38.760;2023-03-05T08:55:26;0.50;;;0.30;;
77078;SDS011;66004;55.096;38.760;2023-03-05T08:57:52;0.73;;;0.60;;
77078;SDS011;66004;55.096;38.760;2023-03-05T09:00:17;1.13;;;0.50;;
77078;SDS011;66004;55.096;38.760;2023-03-05T09:02:43;1.55;;;0.70;;
77078;SDS011;66004;55.096;38.760;2023-03-05T09:05:09;1.35;;;0.45;;
77078;SDS011;66004;55.096;38.760;2023-03-05T09:07:34;1.55;;;0.50;;
77078;SDS011;66004;55.096;38.760;2023-03-05T09:10:01;1.55;;;0.50;;
77078;SDS011;66004;55.096;38.760;2023-03-05T09:12:28;1.08;;;0.50;;
77078;SDS011;66004;55.096;38.760;2023-03-05T09:14:54;1.45;;;0.57;;
77078;SDS011;66004;55.096;38.760;2023-03-05T09:17:20;0.80;;;0.40;;
77078;SDS011;66004;55.096;38.760;2023-03-05T09:19:46;1.15;;;0.52;;
77078;SDS011;66004;55.096;38.760;2023-03-05T09:22:11;0.93;;;0.50;;
77078;SDS011;66004;55.096;38.760;2023-03-05T09:24:37;1.33;;;0.60;;
77078;SDS011;66004;55.096;38.760;2023-03-05T09:27:02;1.40;;;0.57;;
77078;SDS011;66004;55.096;38.760;2023-03-05T09:29:28;0.85;;;0.60;;
77078;SDS011;66004;55.096;38.760;2023-03-05T09:31:55;1.00;;;0.60;;
77078;SDS011;66004;55.096;38.760;2023-03-05T09:34:21;3.15;;;0.95;;
77078;SDS011;66004;55.096;38.760;2023-03-05T09:36:47;1.63;;;0.68;;
77078;SDS011;66004;55.096;38.760;2023-03-05T09:39:13;3.00;;;0.90;;
77078;SDS011;66004;55.096;38.760;2023-03-05T09:55:49;1.67;;;0.60;;
77078;SDS011;66004;55.096;38.760;2023-03-05T09:58:09;0.77;;;0.50;;
77078;SDS011;66004;55.096;38.760;2023-03-05T10:00:47;1.42;;;0.70;;
77078;SDS011;66004;55.096;38.760;2023-03-05T10:14:01;2.72;;;0.70;;
77078;SDS011;66004;55.096;38.760;2023-03-05T10:24:55;0.43;;;0.40;;
77078;SDS011;66004;55.096;38.760;2023-03-05T10:27:31;0.98;;;0.40;;
77078;SDS011;66004;55.096;38.760;2023-03-05T10:35:59;0.73;;;0.40;;
77078;SDS011;66004;55.096;38.760;2023-03-05T10:43:57;1.35;;;0.75;;
77078;SDS011;66004;55.096;38.760;2023-03-05T10:46:35;1.30;;;0.70;;
77078;SDS011;66004;55.096;38.760;2023-03-05T10:49:11;1.45;;;0.68;;
77078;SDS011;66004;55.096;38.760;2023-03-05T10:51:57;1.10;;;0.50;;
77078;SDS011;66004;55.096;38.760;2023-03-05T10:54:34;1.58;;;0.55;;
77078;SDS011;66004;55.096;38.760;2023-03-05T10:59:51;1.98;;;0.70;;
77078;SDS011;66004;55.096;38.760;2023-03-05T11:02:18;2.40;;;0.82;;
77078;SDS011;66004;55.096;38.760;2023-03-05T11:04:45;2.45;;;1.00;;
77078;SDS011;66004;55.096;38.760;2023-03-05T11:09:42;1.25;;;0.95;;
77078;SDS011;66004;55.096;38.760;2023-03-05T11:12:35;4.22;;;1.35;;
77078;SDS011;66004;55.096;38.760;2023-03-05T11:17:45;0.82;;;0.65;;
77078;SDS011;66004;55.096;38.760;2023-03-05T11:25:55;3.83;;;1.58;;
77078;SDS011;66004;55.096;38.760;2023-03-05T11:29:17;1.48;;;0.63;;
77078;SDS011;66004;55.096;38.760;2023-03-05T11:31:41;6.10;;;2.10;;
77078;SDS011;66004;55.096;38.760;2023-03-05T11:34:20;3.78;;;1.52;;
77078;SDS011;66004;55.096;38.760;2023-03-05T11:39:21;2.90;;;1.25;;
77078;SDS011;66004;55.096;38.760;2023-03-05T11:41:51;2.55;;;1.30;;
77078;SDS011;66004;55.096;38.760;2023-03-05T11:47:31;2.55;;;1.15;;
77078;SDS011;66004;55.096;38.760;2023-03-05T11:50:21;2.60;;;1.42;;
77078;SDS011;66004;55.096;38.760;2023-03-05T11:53:04;2.20;;;1.02;;
77078;SDS011;66004;55.096;38.760;2023-03-05T11:55:43;2.10;;;1.17;;
77078;SDS011;66004;55.096;38.760;2023-03-05T11:58:33;3.35;;;1.10;;
77078;SDS011;66004;55.096;38.760;2023-03-05T12:01:05;2.83;;;1.27;;
77078;SDS011;66004;55.096;38.760;2023-03-05T12:03:40;2.58;;;1.20;;
77078;SDS011;66004;55.096;38.760;2023-03-05T12:08:44;2.30;;;1.30;;
77078;SDS011;66004;55.096;38.760;2023-03-05T12:11:17;2.60;;;1.05;;
77078;SDS011;66004;55.096;38.760;2023-03-05T12:13:50;3.40;;;1.30;;
77078;SDS011;66004;55.096;38.760;2023-03-05T12:16:27;3.17;;;1.05;;
77078;SDS011;66004;55.096;38.760;2023-03-05T12:19:39;1.80;;;0.90;;
77078;SDS011;66004;55.096;38.760;2023-03-05T12:22:20;3.38;;;1.40;;
77078;SDS011;66004;55.096;38.760;2023-03-05T12:24:47;4.80;;;2.75;;
77078;SDS011;66004;55.096;38.760;2023-03-05T12:27:14;6.72;;;4.53;;
77078;SDS011;66004;55.096;38.760;2023-03-05T12:34:56;3.15;;;1.60;;
77078;SDS011;66004;55.096;38.760;2023-03-05T12:52:59;2.30;;;1.58;;
77078;SDS011;66004;55.096;38.760;2023-03-05T12:55:36;2.28;;;1.10;;
77078;SDS011;66004;55.096;38.760;2023-03-05T12:58:12;3.60;;;1.73;;
77078;SDS011;66004;55.096;38.760;2023-03-05T13:00:44;2.53;;;1.35;;
77078;SDS011;66004;55.096;38.760;2023-03-05T13:03:38;1.48;;;1.00;;
77078;SDS011;66004;55.096;38.760;2023-03-05T13:06:04;2.30;;;1.08;;
77078;SDS011;66004;55.096;38.760;2023-03-05T13:08:35;1.70;;;1.00;;
77078;SDS011;66004;55.096;38.760;2023-03-05T13:11:02;2.55;;;1.02;;
77078;SDS011;66004;55.096;38.760;2023-03-05T13:13:37;2.33;;;1.00;;
77078;SDS011;66004;55.096;38.760;2023-03-05T13:16:21;4.45;;;0.90;;
77078;SDS011;66004;55.096;38.760;2023-03-05T13:18:49;4.20;;;1.30;;
77078;SDS011;66004;55.096;38.760;2023-03-05T13:23:49;3.08;;;1.00;;
77078;SDS011;66004;55.096;38.760;2023-03-05T13:29:05;2.35;;;1.30;;
77078;SDS011;66004;55.096;38.760;2023-03-05T13:31:39;2.40;;;1.58;;
77078;SDS011;66004;55.096;38.760;2023-03-05T13:34:14;3.90;;;1.63;;
77078;SDS011;66004;55.096;38.760;2023-03-05T13:36:47;4.18;;;1.75;;
77078;SDS011;66004;55.096;38.760;2023-03-05T13:41:56;3.60;;;1.33;;
77078;SDS011;66004;55.096;38.760;2023-03-05T13:44:26;2.60;;;1.85;;
77078;SDS011;66004;55.096;38.760;2023-03-05T13:47:04;4.00;;;1.95;;
77078;SDS011;66004;55.096;38.760;2023-03-05T13:49:31;4.22;;;1.88;;
77078;SDS011;66004;55.096;38.760;2023-03-05T13:51:57;4.43;;;2.00;;
77078;SDS011;66004;55.096;38.760;2023-03-05T13:54:24;3.53;;;1.80;;
77078;SDS011;66004;55.096;38.760;2023-03-05T13:56:57;3.38;;;1.83;;
77078;SDS011;66004;55.096;38.760;2023-03-05T13:59:26;5.38;;;2.55;;
77078;SDS011;66004;55.096;38.760;2023-03-05T14:01:55;3.95;;;2.13;;
77078;SDS011;66004;55.096;38.760;2023-03-05T14:04:26;3.05;;;1.90;;
77078;SDS011;66004;55.096;38.760;2023-03-05T14:12:23;2.72;;;1.80;;
77078;SDS011;66004;55.096;38.760;2023-03-05T14:20:35;3.17;;;2.03;;
77078;SDS011;66004;55.096;38.760;2023-03-05T14:25:47;5.03;;;2.95;;
77078;SDS011;66004;55.096;38.760;2023-03-05T14:30:52;5.75;;;2.92;;
77078;SDS011;66004;55.096;38.760;2023-03-05T14:33:27;6.50;;;3.30;;
77078;SDS011;66004;55.096;38.760;2023-03-05T14:35:56;7.20;;;3.05;;
77078;SDS011;66004;55.096;38.760;2023-03-05T14:38:27;6.53;;;2.90;;
77078;SDS011;66004;55.096;38.760;2023-03-05T14:40:55;4.68;;;2.72;;
77078;SDS011;66004;55.096;38.760;2023-03-05T14:43:21;5.82;;;2.60;;
77078;SDS011;66004;55.096;38.760;2023-03-05T14:45:47;5.72;;;2.38;;
77078;SDS011;66004;55.096;38.760;2023-03-05T14:48:13;6.03;;;2.60;;
77078;SDS011;66004;55.096;38.760;2023-03-05T14:53:03;4.07;;;2.60;;
77078;SDS011;66004;55.096;38.760;2023-03-05T14:55:32;5.43;;;2.35;;
77078;SDS011;66004;55.096;38.760;2023-03-05T14:58:03;4.35;;;2.30;;
77078;SDS011;66004;55.096;38.760;2023-03-05T15:00:38;3.85;;;2.38;;
77078;SDS011;66004;55.096;38.760;2023-03-05T15:03:03;5.18;;;2.72;;
77078;SDS011;66004;55.096;38.760;2023-03-05T15:05:29;5.82;;;2.60;;
77078;SDS011;66004;55.096;38.760;2023-03-05T15:07:55;5.50;;;2.53;;
77078;SDS011;66004;55.096;38.760;2023-03-05T15:10:22;4.68;;;2.78;;
77078;SDS011;66004;55.096;38.760;2023-03-05T15:12:49;5.43;;;2.72;;
77078;SDS011;66004;55.096;38.760;2023-03-05T15:15:17;5.88;;;2.63;;
77078;SDS011;66004;55.096;38.760;2023-03-05T15:17:44;5.68;;;2.72;;
77078;SDS011;66004;55.096;38.760;2023-03-05T15:20:16;4.22;;;2.90;;
77078;SDS011;66004;55.096;38.760;2023-03-05T15:22:42;5.07;;;2.80;;
77078;SDS011;66004;55.096;38.760;2023-03-05T15:25:08;4.55;;;2.45;;
77078;SDS011;66004;55.096;38.760;2023-03-05T15:27:34;7.53;;;2.75;;
77078;SDS011;66004;55.096;38.760;2023-03-05T15:29:59;4.90;;;2.83;;
77078;SDS011;66004;55.096;38.760;2023-03-05T15:32:28;4.63;;;2.42;;
77078;SDS011;66004;55.096;38.760;2023-03-05T15:34:55;5.13;;;2.92;;
77078;SDS011;66004;55.096;38.760;2023-03-05T15:37:21;4.82;;;3.03;;
77078;SDS011;66004;55.096;38.760;2023-03-05T15:39:47;4.75;;;2.90;;
77078;SDS011;66004;55.096;38.760;2023-03-05T15:42:13;3.13;;;2.17;;
77078;SDS011;66004;55.096;38.760;2023-03-05T15:44:38;4.78;;;2.42;;
77078;SDS011;66004;55.096;38.760;2023-03-05T15:47:04;3.92;;;2.45;;
77078;SDS011;66004;55.096;38.760;2023-03-05T15:49:30;3.30;;;2.20;;
77078;SDS011;66004;55.096;38.760;2023-03-05T15:54:22;6.50;;;2.40;;
77078;SDS011;66004;55.096;38.760;2023-03-05T15:56:48;3.50;;;2.42;;
77078;SDS011;66004;55.096;38.760;2023-03-05T15:59:13;4.68;;;2.60;;
77078;SDS011;66004;55.096;38.760;2023-03-05T16:01:39;3.45;;;2.15;;
77078;SDS011;66004;55.096;38.760;2023-03-05T16:04:09;4.50;;;1.80;;
77078;SDS011;66004;55.096;38.760;2023-03-05T16:06:35;3.83;;;2.22;;
77078;SDS011;66004;55.096;38.760;2023-03-05T16:09:02;4.45;;;2.42;;
77078;SDS011;66004;55.096;38.760;2023-03-05T16:11:29;3.70;;;2.15;;
77078;SDS011;66004;55.096;38.760;2023-03-05T16:13:57;4.38;;;2.20;;
77078;SDS011;66004;55.096;38.760;2023-03-05T16:16:25;4.55;;;2.40;;
77078;SDS011;66004;55.096;38.760;2023-03-05T16:21:17;4.05;;;2.28;;
77078;SDS011;66004;55.096;38.760;2023-03-05T16:23:43;4.25;;;2.38;;
77078;SDS011;66004;55.096;38.760;2023-03-05T16:26:09;4.25;;;2.40;;
77078;SDS011;66004;55.096;38.760;2023-03-05T16:28:36;3.25;;;2.20;;
77078;SDS011;66004;55.096;38.760;2023-03-05T16:31:01;4.15;;;2.22;;
77078;SDS011;66004;55.096;38.760;2023-03-05T16:33:27;4.15;;;2.75;;
77078;SDS011;66004;55.096;38.760;2023-03-05T16:38:48;3.97;;;2.70;;
77078;SDS011;66004;55.096;38.760;2023-03-05T16:41:15;4.68;;;2.60;;
77078;SDS011;66004;55.096;38.760;2023-03-05T16:43:42;5.68;;;2.35;;
77078;SDS011;66004;55.096;38.760;2023-03-05T16:46:09;4.68;;;2.58;;
77078;SDS011;66004;55.096;38.760;2023-03-05T16:48:35;4.03;;;2.50;;
77078;SDS011;66004;55.096;38.760;2023-03-05T16:51:01;4.32;;;2.20;;
77078;SDS011;66004;55.096;38.760;2023-03-05T16:55:53;4.75;;;2.30;;
77078;SDS011;66004;55.096;38.760;2023-03-05T16:58:18;7.40;;;2.60;;
77078;SDS011;66004;55.096;38.760;2023-03-05T17:00:44;5.38;;;2.95;;
77078;SDS011;66004;55.096;38.760;2023-03-05T17:03:09;3.97;;;2.30;;
77078;SDS011;66004;55.096;38.760;2023-03-05T17:05:35;5.60;;;2.72;;
77078;SDS011;66004;55.096;38.760;2023-03-05T17:08:01;3.30;;;2.20;;
77078;SDS011;66004;55.096;38.760;2023-03-05T17:10:28;3.97;;;2.30;;